Time;durP1;ratioP1;P1;durP2;ratioP2;P2;SDS_P1;SDS_P2;PMS_P1;PMS_P2;Temp;Humidity;BMP_temperature;BMP_pressure;BME280_temperature;BME280_humidity;BME280_pressure;Samples;Min_cycle;Max_cycle;Signal;HPM_P1;HPM_P2
2023/02/15 00:01:34;;;;;;;25.13;16.53;;;;;;;8.15;88.46;102991.78;6310650;27;20230;-71
2023/02/15 00:04:55;;;;;;;24.53;15.43;;;;;;;7.89;89.04;102997.41;6301116;28;20242;-71
2023/02/15 00:08:16;;;;;;;27.87;15.93;;;;;;;8.07;89.00;102991.25;6291374;28;20222;-71
2023/02/15 00:11:42;;;;;;;25.17;17.00;;;;;;;8.28;87.49;102992.13;6310279;28;20604;-70
2023/02/15 00:15:03;;;;;;;37.43;17.10;;;;;;;7.90;89.21;102988.44;6302351;28;20257;-69
2023/02/15 00:18:24;;;;;;;28.90;16.47;;;;;;;8.34;87.61;102989.16;6271430;28;20246;-69
2023/02/15 00:21:46;;;;;;;25.63;16.23;;;;;;;8.36;85.88;102980.09;6280934;28;20223;-71
2023/02/15 00:25:07;;;;;;;25.70;16.97;;;;;;;8.75;85.34;102971.97;6293667;27;20479;-71
2023/02/15 00:28:30;;;;;;;21.77;14.63;;;;;;;8.59;84.94;102976.34;6287716;28;20233;-70
2023/02/15 00:31:53;;;;;;;26.23;13.60;;;;;;;8.36;86.53;102969.34;6289984;28;20235;-70
2023/02/15 00:35:14;;;;;;;18.17;14.20;;;;;;;8.34;86.39;102962.31;6279139;28;20601;-70
2023/02/15 00:38:35;;;;;;;20.30;15.23;;;;;;;7.97;87.58;102976.47;6263337;28;20245;-71
2023/02/15 00:41:56;;;;;;;30.33;17.10;;;;;;;7.89;87.26;102968.75;6291911;27;21391;-71
2023/02/15 00:45:21;;;;;;;23.00;16.90;;;;;;;8.18;87.58;102961.22;6298338;27;20221;-71
2023/02/15 00:48:41;;;;;;;25.67;16.13;;;;;;;8.72;86.17;102954.16;6275081;28;20250;-70
2023/02/15 00:52:02;;;;;;;24.73;15.17;;;;;;;8.98;84.06;102950.22;6289728;28;20230;-71
2023/02/15 00:55:23;;;;;;;24.07;16.97;;;;;;;8.65;85.32;102938.41;6301098;27;20588;-70
2023/02/15 00:58:44;;;;;;;19.67;12.83;;;;;;;8.56;85.29;102952.28;6279981;28;20231;-70
2023/02/15 01:02:06;;;;;;;30.90;14.63;;;;;;;8.55;85.93;102950.56;6274469;28;20341;-70
2023/02/15 01:05:29;;;;;;;26.90;16.80;;;;;;;8.88;84.60;102942.69;6266199;28;20671;-70
2023/02/15 01:08:50;;;;;;;28.23;17.80;;;;;;;8.66;84.18;102951.78;6284804;28;20254;-69
2023/02/15 01:12:11;;;;;;;25.87;16.87;;;;;;;8.43;85.32;102953.78;6264325;28;20234;-71
2023/02/15 01:15:34;;;;;;;21.93;14.87;;;;;;;8.57;84.96;102946.81;6260164;28;20227;-72
2023/02/15 01:18:57;;;;;;;29.50;19.77;;;;;;;8.18;86.62;102942.44;6271064;28;20262;-70
2023/02/15 01:22:18;;;;;;;20.40;13.60;;;;;;;8.64;85.99;102931.28;6270771;28;20227;-70
2023/02/15 01:25:39;;;;;;;27.73;17.57;;;;;;;9.01;84.54;102923.16;6256443;28;20239;-70
2023/02/15 01:28:59;;;;;;;27.23;15.43;;;;;;;9.22;82.68;102922.09;6280693;28;20226;-71
2023/02/15 01:32:20;;;;;;;19.20;14.00;;;;;;;9.16;83.27;102925.09;6273497;28;20232;-71
2023/02/15 01:35:43;;;;;;;21.20;16.07;;;;;;;8.50;85.41;102918.50;6280871;28;20223;-70
2023/02/15 01:39:05;;;;;;;21.97;13.37;;;;;;;8.57;85.84;102916.41;6269476;28;20230;-71
2023/02/15 01:42:26;;;;;;;30.17;15.83;;;;;;;8.44;85.70;102907.16;6288544;27;20784;-70
2023/02/15 01:45:48;;;;;;;19.63;13.57;;;;;;;8.75;85.14;102913.69;6282407;28;20230;-70
2023/02/15 01:49:13;;;;;;;25.30;16.73;;;;;;;8.82;84.77;102909.75;6269656;28;20320;-70
2023/02/15 01:52:37;;;;;;;27.60;15.73;;;;;;;8.51;85.17;102905.94;6290122;28;20223;-70
2023/02/15 01:56:02;;;;;;;23.23;14.00;;;;;;;8.68;84.37;102904.19;6289179;28;20238;-70
2023/02/15 01:59:24;;;;;;;24.77;14.53;;;;;;;8.34;86.17;102906.75;6270686;28;20545;-70
2023/02/15 02:02:50;;;;;;;22.07;15.90;;;;;;;8.69;85.48;102905.94;6271508;28;20369;-71
2023/02/15 02:06:11;;;;;;;21.20;14.30;;;;;;;9.11;83.27;102894.00;6271498;28;20228;-71
2023/02/15 02:09:37;;;;;;;22.93;14.03;;;;;;;8.34;85.54;102895.13;6276010;28;20230;-72
2023/02/15 02:13:01;;;;;;;20.50;15.63;;;;;;;8.52;84.74;102887.06;6267264;28;20239;-71
2023/02/15 02:16:26;;;;;;;25.80;14.57;;;;;;;8.25;85.52;102882.06;6290538;28;20452;-71
2023/02/15 02:20:16;;;;;;;25.67;13.73;;;;;;;8.63;84.50;102873.09;6298608;27;20221;-70
2023/02/15 02:24:11;;;;;;;19.47;14.40;;;;;;;8.68;84.42;102869.22;6272315;28;21694;-70
2023/02/15 02:27:40;;;;;;;18.03;13.60;;;;;;;8.54;84.96;102868.16;6295428;28;20308;-71
2023/02/15 02:31:32;;;;;;;17.97;13.70;;;;;;;8.80;83.45;102863.22;6285427;28;20889;-71
2023/02/15 02:35:01;;;;;;;23.67;14.03;;;;;;;8.41;84.94;102854.44;6293755;27;20694;-70
2023/02/15 02:38:33;;;;;;;29.63;16.50;;;;;;;8.82;84.12;102855.97;6268409;28;20327;-71
2023/02/15 02:42:02;;;;;;;25.50;14.60;;;;;;;8.69;84.78;102852.16;6298486;28;20238;-71
2023/02/15 02:45:29;;;;;;;30.13;14.70;;;;;;;7.97;86.59;102845.75;6286400;27;20230;-70
2023/02/15 02:48:51;;;;;;;19.73;14.77;;;;;;;8.00;87.78;102848.31;6290203;28;20222;-71
2023/02/15 02:52:37;;;;;;;23.27;14.00;;;;;;;7.97;86.16;102847.56;6290558;27;20788;-71
2023/02/15 02:56:03;;;;;;;22.80;14.10;;;;;;;8.03;86.57;102844.63;6289753;28;20843;-70
2023/02/15 02:59:28;;;;;;;28.63;16.33;;;;;;;8.21;86.24;102842.88;6303844;27;20226;-70
2023/02/15 03:02:58;;;;;;;28.10;16.40;;;;;;;8.12;86.38;102835.22;6281134;28;20226;-70
2023/02/15 03:06:24;;;;;;;31.07;15.33;;;;;;;7.15;89.89;102845.03;6293342;28;21111;-71
2023/02/15 03:09:49;;;;;;;24.87;15.03;;;;;;;7.52;89.54;102833.56;6301392;27;20221;-70
2023/02/15 03:13:10;;;;;;;28.37;14.10;;;;;;;7.83;88.82;102833.91;6287506;28;20231;-71
2023/02/15 03:16:31;;;;;;;23.67;16.37;;;;;;;7.72;88.32;102823.66;6282057;28;20327;-71
2023/02/15 03:19:56;;;;;;;26.87;16.63;;;;;;;7.70;88.64;102820.19;6284912;28;20223;-70
2023/02/15 03:23:22;;;;;;;23.23;16.77;;;;;;;7.60;90.19;102817.97;6270742;28;20238;-71
2023/02/15 03:26:48;;;;;;;20.23;15.90;;;;;;;8.11;87.44;102820.06;6292743;27;20238;-70
2023/02/15 03:30:11;;;;;;;25.23;16.37;;;;;;;8.06;86.63;102821.16;6305206;27;20230;-70
2023/02/15 03:33:33;;;;;;;27.63;17.37;;;;;;;8.56;85.52;102812.50;6273938;28;20230;-70
2023/02/15 03:37:02;;;;;;;16.80;13.93;;;;;;;8.37;85.04;102808.97;6301522;27;20246;-70
2023/02/15 03:44:16;;;;;;;20.40;12.70;;;;;;;7.82;87.13;102810.72;6294131;28;20587;-70
2023/02/15 03:47:40;;;;;;;27.53;12.97;;;;;;;7.54;88.18;102804.84;6281281;28;20250;-70
2023/02/15 03:54:46;;;;;;;20.10;15.23;;;;;;;7.41;87.84;102801.84;6290017;28;20545;-70
2023/02/15 04:01:58;;;;;;;20.13;14.03;;;;;;;7.67;87.20;102793.50;6295928;27;20655;-69
2023/02/15 04:05:19;;;;;;;28.03;14.40;;;;;;;7.08;89.14;102803.31;6285086;28;20227;-71
2023/02/15 04:12:18;;;;;;;25.00;13.20;;;;;;;7.66;87.62;102791.75;6289268;28;20258;-71
2023/02/15 04:26:36;;;;;;;25.90;12.77;;;;;;;7.52;87.15;102783.44;6282792;27;20232;-71
2023/02/15 04:29:57;;;;;;;19.90;13.07;;;;;;;8.06;86.49;102782.69;6292529;28;20313;-71
2023/02/15 04:33:18;;;;;;;20.10;11.97;;;;;;;8.17;84.61;102777.69;6269243;28;20625;-71
2023/02/15 04:36:41;;;;;;;22.27;14.03;;;;;;;7.91;85.80;102773.53;6297296;28;20234;-71
2023/02/15 04:40:02;;;;;;;13.83;12.43;;;;;;;8.17;84.94;102771.44;6286596;28;20865;-71
2023/02/15 04:43:23;;;;;;;16.27;10.10;;;;;;;7.60;86.87;102772.34;6271830;27;20250;-70
2023/02/15 04:46:44;;;;;;;18.87;12.37;;;;;;;7.65;86.28;102771.22;6291844;27;20235;-71
2023/02/15 04:50:06;;;;;;;19.17;13.67;;;;;;;8.23;84.64;102766.63;6303644;27;20241;-69
2023/02/15 04:53:28;;;;;;;29.80;13.43;;;;;;;7.70;85.19;102760.25;6277904;28;20402;-70
2023/02/15 04:56:49;;;;;;;20.57;13.20;;;;;;;8.06;85.88;102759.38;6293916;27;22256;-71
2023/02/15 05:00:11;;;;;;;23.73;12.93;;;;;;;8.16;85.30;102757.13;6282089;28;20231;-71
2023/02/15 05:03:31;;;;;;;23.73;16.47;;;;;;;8.25;84.83;102755.81;6271462;28;20542;-72
2023/02/15 05:06:52;;;;;;;19.30;12.30;;;;;;;7.85;85.67;102754.16;6299408;27;20223;-71
2023/02/15 05:10:14;;;;;;;20.23;12.97;;;;;;;8.15;83.90;102751.81;6308136;27;20234;-71
2023/02/15 05:13:35;;;;;;;24.07;12.03;;;;;;;7.98;84.31;102749.97;6277904;28;20226;-70
2023/02/15 05:16:58;;;;;;;17.23;11.53;;;;;;;7.54;85.17;102759.22;6275546;28;20215;-70
2023/02/15 05:20:19;;;;;;;19.20;10.37;;;;;;;6.71;88.19;102753.13;6293523;28;20261;-70
2023/02/15 05:23:40;;;;;;;24.47;11.60;;;;;;;7.07;87.53;102743.47;6267010;28;20227;-70
2023/02/15 05:30:40;;;;;;;20.17;11.90;;;;;;;7.87;85.32;102739.72;6297124;28;20251;-71
2023/02/15 05:34:01;;;;;;;20.37;12.27;;;;;;;7.68;85.17;102736.16;6270529;28;20226;-71
2023/02/15 05:37:22;;;;;;;26.83;13.43;;;;;;;6.83;88.66;102743.66;6294596;28;21588;-71
2023/02/15 05:40:43;;;;;;;25.13;10.80;;;;;;;6.93;87.83;102745.00;6278339;28;20231;-71
2023/02/15 05:44:05;;;;;;;20.03;11.90;;;;;;;7.51;85.98;102727.19;6279062;27;20230;-71
2023/02/15 05:47:26;;;;;;;17.70;12.13;;;;;;;7.84;84.40;102723.75;6269688;27;20228;-70
2023/02/15 05:50:58;;;;;;;16.47;13.17;;;;;;;8.00;83.41;102714.03;6264878;28;20227;-71
2023/02/15 05:54:18;;;;;;;16.37;12.33;;;;;;;8.32;82.87;102711.59;6297297;28;20798;-71
2023/02/15 05:57:39;;;;;;;19.93;11.50;;;;;;;8.05;83.07;102719.19;6282104;28;20242;-70
2023/02/15 06:01:08;;;;;;;14.13;12.07;;;;;;;7.93;83.18;102717.06;6266756;28;20254;-70
2023/02/15 06:04:29;;;;;;;21.07;12.33;;;;;;;7.15;85.34;102716.31;6276395;28;20821;-70
2023/02/15 06:07:50;;;;;;;17.07;12.43;;;;;;;7.69;84.83;102715.56;6267873;28;20670;-70
2023/02/15 06:11:11;;;;;;;25.30;13.37;;;;;;;7.33;84.58;102719.97;6293643;28;20222;-71
2023/02/15 06:14:32;;;;;;;16.93;10.97;;;;;;;7.40;85.06;102718.75;6282725;28;20549;-70
2023/02/15 06:17:54;;;;;;;18.87;12.17;;;;;;;7.34;84.49;102725.28;6254561;28;20309;-70
2023/02/15 06:21:15;;;;;;;43.70;14.20;;;;;;;7.22;84.63;102723.13;6281263;28;20227;-70
2023/02/15 06:24:36;;;;;;;23.43;14.53;;;;;;;7.47;84.44;102728.25;6285310;28;20229;-70
2023/02/15 06:27:57;;;;;;;16.63;11.93;;;;;;;7.53;83.54;102720.78;6286355;28;20231;-70
2023/02/15 06:31:18;;;;;;;22.70;14.10;;;;;;;7.97;82.57;102726.72;6283178;28;20775;-70
2023/02/15 06:34:40;;;;;;;15.90;12.60;;;;;;;7.65;82.51;102733.66;6286958;28;20305;-70
2023/02/15 06:38:00;;;;;;;26.40;13.90;;;;;;;7.03;84.63;102741.00;6276064;28;20231;-70
2023/02/15 06:41:21;;;;;;;35.00;12.03;;;;;;;7.10;84.27;102750.50;6296701;28;20246;-70
2023/02/15 06:44:42;;;;;;;26.03;11.90;;;;;;;7.50;83.69;102739.72;6297388;27;20222;-70
2023/02/15 06:48:06;;;;;;;23.93;11.17;;;;;;;7.77;82.81;102733.06;6264877;28;20230;-70
2023/02/15 06:51:28;;;;;;;18.80;11.30;;;;;;;7.54;83.19;102730.59;6288856;28;20227;-69
2023/02/15 06:54:49;;;;;;;22.17;14.03;;;;;;;7.58;83.29;102729.50;6288827;28;20221;-69
2023/02/15 06:58:10;;;;;;;17.60;12.53;;;;;;;7.89;82.11;102724.41;6273831;28;20251;-68
2023/02/15 07:01:31;;;;;;;15.97;12.63;;;;;;;7.89;81.86;102727.09;6279409;28;20593;-68
2023/02/15 07:04:52;;;;;;;17.27;11.07;;;;;;;7.77;82.52;102718.75;6274225;28;20235;-69
2023/02/15 07:08:14;;;;;;;16.43;11.60;;;;;;;7.28;83.68;102709.44;6284082;28;20306;-70
2023/02/15 07:15:15;;;;;;;19.07;12.63;;;;;;;8.18;81.08;102714.94;6273937;28;20326;-70
2023/02/15 07:18:36;;;;;;;13.57;10.03;;;;;;;7.76;81.83;102711.66;6274834;27;20234;-70
2023/02/15 07:21:57;;;;;;;16.10;10.03;;;;;;;8.35;80.81;102706.94;6283706;27;20229;-70
2023/02/15 07:25:19;;;;;;;20.97;13.07;;;;;;;7.91;81.31;102706.41;6270568;28;20258;-69
2023/02/15 07:28:40;;;;;;;19.03;10.40;;;;;;;7.48;82.36;102705.84;6265642;28;20234;-69
2023/02/15 07:32:01;;;;;;;19.20;10.80;;;;;;;7.99;81.30;102701.53;6277729;28;20250;-71
2023/02/15 07:35:22;;;;;;;28.33;17.13;;;;;;;7.82;81.34;102706.00;6290969;27;20638;-71
2023/02/15 07:38:44;;;;;;;16.10;12.57;;;;;;;7.54;81.93;102705.56;6275765;28;20491;-70
2023/02/15 07:42:06;;;;;;;21.07;12.63;;;;;;;7.76;81.83;102696.41;6250078;28;20307;-69
2023/02/15 07:45:27;;;;;;;19.37;11.37;;;;;;;7.58;82.90;102694.59;6273802;28;20227;-69
2023/02/15 07:48:48;;;;;;;21.87;11.83;;;;;;;7.79;81.34;102679.28;6281191;27;20218;-69
2023/02/15 07:52:09;;;;;;;29.30;12.27;;;;;;;7.13;82.35;102691.38;6308488;28;20230;-68
2023/02/15 07:55:31;;;;;;;16.67;11.90;;;;;;;7.58;82.04;102683.00;6299007;28;20235;-68
2023/02/15 07:58:55;;;;;;;16.40;10.97;;;;;;;7.19;83.35;102680.38;6268429;28;20230;-68
2023/02/15 08:02:16;;;;;;;20.93;9.67;;;;;;;6.68;84.10;102696.09;6274781;28;20809;-70
2023/02/15 08:05:37;;;;;;;23.90;11.73;;;;;;;6.65;85.23;102690.88;6309640;28;20257;-69
2023/02/15 08:08:58;;;;;;;16.47;9.70;;;;;;;6.83;84.62;102684.69;6300810;28;20238;-70
2023/02/15 08:12:19;;;;;;;16.90;11.03;;;;;;;7.10;82.57;102680.78;6315187;28;20238;-69
2023/02/15 08:15:49;;;;;;;16.23;10.63;;;;;;;6.94;83.68;102677.94;6293389;28;20239;-69
2023/02/15 08:19:11;;;;;;;21.80;13.33;;;;;;;6.56;84.96;102683.22;6279027;28;20549;-72
2023/02/15 08:22:32;;;;;;;28.03;13.00;;;;;;;6.94;83.01;102675.25;6287229;28;20231;-71
2023/02/15 08:25:53;;;;;;;15.97;11.80;;;;;;;7.61;81.34;102666.75;6281730;28;20231;-71
2023/02/15 08:29:15;;;;;;;19.53;11.67;;;;;;;7.43;81.36;102662.25;6281753;28;20523;-72
2023/02/15 08:32:37;;;;;;;35.03;14.23;;;;;;;6.90;82.39;102670.09;6286673;28;20230;-69
2023/02/15 08:36:03;;;;;;;17.53;12.53;;;;;;;6.91;83.41;102671.81;6277206;28;20243;-70
2023/02/15 08:39:24;;;;;;;25.10;12.60;;;;;;;7.06;83.17;102669.34;6286548;28;20241;-70
2023/02/15 08:42:45;;;;;;;19.13;13.43;;;;;;;7.35;81.68;102670.66;6254045;28;20231;-68
2023/02/15 08:46:07;;;;;;;23.43;15.33;;;;;;;7.26;82.01;102671.09;6261740;28;20554;-69
2023/02/15 08:49:30;;;;;;;29.40;18.03;;;;;;;7.84;80.60;102669.22;6270620;28;20269;-70
2023/02/15 08:52:51;;;;;;;17.47;13.37;;;;;;;8.13;78.54;102662.41;6262658;28;20691;-67
2023/02/15 08:56:12;;;;;;;23.37;13.00;;;;;;;7.58;79.49;102656.16;6292258;28;20223;-69
2023/02/15 08:59:33;;;;;;;18.37;11.60;;;;;;;7.35;81.15;102653.69;6298901;28;20234;-69
2023/02/15 09:02:55;;;;;;;23.83;11.60;;;;;;;7.13;81.13;102656.53;6290338;28;20690;-69
2023/02/15 09:06:18;;;;;;;20.10;12.83;;;;;;;7.32;81.75;102665.47;6297484;28;20781;-69
2023/02/15 09:09:38;;;;;;;19.30;12.53;;;;;;;7.52;80.58;102660.00;6309332;28;20237;-68
2023/02/15 09:12:59;;;;;;;19.83;10.63;;;;;;;6.18;84.86;102664.31;6286513;28;20246;-68
2023/02/15 09:16:20;;;;;;;27.17;11.73;;;;;;;6.05;85.91;102668.41;6302837;28;20608;-70
2023/02/15 09:19:41;;;;;;;20.73;13.73;;;;;;;5.91;86.72;102660.09;6271151;28;20749;-69
2023/02/15 09:23:04;;;;;;;14.10;11.13;;;;;;;6.48;85.38;102654.09;6263557;28;20243;-69
2023/02/15 09:26:27;;;;;;;15.07;12.20;;;;;;;6.27;86.60;102663.94;6283443;28;20413;-69
2023/02/15 09:29:47;;;;;;;19.20;11.87;;;;;;;7.47;82.18;102643.25;6278959;28;20222;-68
2023/02/15 09:33:08;;;;;;;18.43;12.60;;;;;;;6.79;83.05;102645.56;6279852;28;20238;-69
2023/02/15 09:36:33;;;;;;;21.90;13.83;;;;;;;6.61;84.67;102649.06;6309977;28;20258;-70
2023/02/15 09:39:55;;;;;;;16.93;14.13;;;;;;;6.90;84.16;102641.50;6288805;28;20227;-69
2023/02/15 09:43:28;;;;;;;21.53;12.40;;;;;;;7.41;81.71;102632.81;6248995;28;21353;-70
2023/02/15 09:47:06;;;;;;;16.23;11.97;;;;;;;7.74;80.53;102631.19;6254082;28;20219;-70
2023/02/15 09:50:34;;;;;;;15.20;10.20;;;;;;;7.15;80.34;102646.59;6285601;28;20255;-69
2023/02/15 09:54:11;;;;;;;21.83;12.33;;;;;;;6.24;84.79;102652.44;6265211;28;20339;-71
2023/02/15 09:57:40;;;;;;;19.53;11.73;;;;;;;7.07;83.19;102640.72;6263229;28;20266;-69
2023/02/15 10:01:08;;;;;;;16.60;11.37;;;;;;;6.99;82.53;102643.72;6270452;28;20229;-69
2023/02/15 10:04:45;;;;;;;20.97;13.03;;;;;;;7.93;79.40;102644.56;6278594;28;20237;-70
2023/02/15 10:08:32;;;;;;;26.33;12.83;;;;;;;7.68;78.51;102646.72;6280463;28;20229;-69
2023/02/15 10:12:05;;;;;;;15.53;10.73;;;;;;;8.08;79.61;102641.13;6242526;28;20227;-69
2023/02/15 10:15:50;;;;;;;21.77;12.20;;;;;;;7.96;78.16;102649.81;6291900;28;20238;-69
2023/02/15 10:19:20;;;;;;;15.00;10.83;;;;;;;7.57;78.00;102647.22;6307013;28;20241;-69
2023/02/15 10:23:00;;;;;;;16.80;11.83;;;;;;;8.29;81.41;102645.47;6300381;28;20312;-69
2023/02/15 10:26:23;;;;;;;19.47;13.73;;;;;;;8.00;77.50;102643.34;6271000;28;20993;-71
2023/02/15 10:29:55;;;;;;;13.67;10.37;;;;;;;7.42;79.66;102652.47;6283962;28;20222;-69
2023/02/15 10:33:34;;;;;;;16.33;10.00;;;;;;;7.80;79.29;102647.00;6275379;28;20659;-69
2023/02/15 10:37:18;;;;;;;15.97;10.73;;;;;;;8.08;78.02;102647.38;6299285;28;20324;-69
2023/02/15 10:40:50;;;;;;;17.70;10.73;;;;;;;8.43;74.98;102652.78;6296128;27;20764;-68
2023/02/15 10:44:31;;;;;;;17.80;11.10;;;;;;;8.72;75.05;102657.53;6292544;28;20230;-71
2023/02/15 10:48:24;;;;;;;18.07;11.00;;;;;;;8.49;75.11;102647.13;6285797;28;20719;-69
2023/02/15 10:51:57;;;;;;;13.10;9.73;;;;;;;8.61;74.88;102647.38;6290762;28;20639;-69
2023/02/15 10:55:22;;;;;;;16.73;11.77;;;;;;;8.71;74.13;102642.38;6279580;28;21910;-68
2023/02/15 10:59:00;;;;;;;16.10;10.43;;;;;;;8.59;73.91;102643.88;6285755;28;20226;-68
2023/02/15 11:02:30;;;;;;;15.07;10.37;;;;;;;8.93;72.64;102632.19;6275499;28;20230;-70
2023/02/15 11:06:03;;;;;;;20.23;11.83;;;;;;;8.40;74.00;102635.03;6268610;28;20239;-69
2023/02/15 11:09:34;;;;;;;19.87;12.47;;;;;;;8.17;76.17;102626.38;6289596;28;20254;-70
2023/02/15 11:12:57;;;;;;;19.97;12.27;;;;;;;8.06;77.82;102616.16;6288918;28;20230;-69
2023/02/15 11:16:24;;;;;;;14.10;11.53;;;;;;;8.70;74.17;102619.97;6300873;27;20260;-69
2023/02/15 11:19:54;;;;;;;16.17;10.83;;;;;;;8.09;77.05;102611.50;6284137;28;20238;-68
2023/02/15 11:23:18;;;;;;;20.00;14.23;;;;;;;8.30;75.85;102614.97;6268207;28;20246;-69
2023/02/15 11:26:44;;;;;;;17.43;12.17;;;;;;;8.67;75.70;102605.84;6295909;27;20231;-69
2023/02/15 11:30:11;;;;;;;20.30;14.53;;;;;;;8.80;74.16;102612.31;6277018;27;20534;-69
2023/02/15 11:33:38;;;;;;;19.30;12.03;;;;;;;9.04;73.04;102604.72;6267903;28;20269;-68
2023/02/15 11:37:04;;;;;;;22.30;14.17;;;;;;;7.99;76.64;102607.53;6293422;28;20219;-69
2023/02/15 11:40:29;;;;;;;18.23;13.13;;;;;;;8.08;77.64;102607.09;6283472;28;20227;-69
2023/02/15 11:43:57;;;;;;;22.60;15.57;;;;;;;9.20;73.98;102589.47;6270453;27;20227;-70
2023/02/15 11:47:18;;;;;;;21.53;14.43;;;;;;;9.65;71.99;102586.88;6283306;27;20218;-70
2023/02/15 11:50:40;;;;;;;23.40;14.77;;;;;;;10.07;68.59;102575.41;6269524;28;20235;-70
2023/02/15 11:54:04;;;;;;;17.67;12.23;;;;;;;10.06;68.18;102566.44;6286986;27;20238;-70
2023/02/15 11:57:35;;;;;;;19.47;12.43;;;;;;;10.63;67.63;102559.38;6280051;28;20228;-70
2023/02/15 12:01:03;;;;;;;20.13;13.50;;;;;;;10.70;65.68;102557.19;6289201;28;20801;-70
2023/02/15 12:04:29;;;;;;;27.17;17.87;;;;;;;13.39;56.11;102547.63;6283536;28;20225;-71
2023/02/15 12:07:54;;;;;;;20.40;13.77;;;;;;;12.19;58.59;102551.78;6267976;28;20223;-69
2023/02/15 12:11:21;;;;;;;24.20;21.58;;;;;;;13.67;54.64;102539.16;6260826;28;20753;-68
2023/02/15 12:14:49;;;;;;;21.37;13.77;;;;;;;15.78;48.51;102519.38;6284920;28;20226;-69
2023/02/15 12:18:20;;;;;;;18.43;12.63;;;;;;;14.19;50.70;102527.91;6262661;28;20227;-70
2023/02/15 12:21:42;;;;;;;18.03;13.13;;;;;;;13.70;53.65;102522.69;6280723;28;20318;-69
2023/02/15 12:25:20;;;;;;;24.87;15.47;;;;;;;14.88;51.78;102521.50;6299097;28;20245;-68
2023/02/15 12:28:45;;;;;;;15.80;13.00;;;;;;;17.54;44.14;102513.63;6268819;28;20266;-67
2023/02/15 12:32:10;;;;;;;21.00;14.37;;;;;;;19.57;39.25;102507.53;6292345;28;20237;-69
2023/02/15 12:35:37;;;;;;;21.67;12.07;;;;;;;20.63;37.72;102497.38;6264211;28;20259;-71
2023/02/15 12:39:05;;;;;;;19.07;16.53;;;;;;;19.30;38.66;102497.44;6267232;28;20761;-71
2023/02/15 12:42:29;;;;;;;13.33;11.10;;;;;;;19.46;38.87;102502.31;6298638;28;20731;-71
2023/02/15 12:45:50;;;;;;;18.27;11.87;;;;;;;17.01;42.36;102498.53;6257119;28;20656;-71
2023/02/15 12:49:18;;;;;;;20.00;15.87;;;;;;;18.70;40.48;102489.84;6289378;28;20647;-70
2023/02/15 12:52:41;;;;;;;16.73;13.77;;;;;;;18.12;41.64;102487.22;6269307;28;20231;-69
2023/02/15 12:56:03;;;;;;;18.27;13.77;;;;;;;17.36;42.98;102482.56;6270381;28;20239;-66
2023/02/15 12:59:25;;;;;;;22.73;17.23;;;;;;;16.25;46.18;102479.91;6272030;28;20258;-71
2023/02/15 13:02:49;;;;;;;14.40;12.90;;;;;;;17.00;45.67;102488.63;6284749;28;20227;-69
2023/02/15 13:06:10;;;;;;;18.90;15.50;;;;;;;16.69;45.48;102481.47;6276267;28;20239;-68
2023/02/15 13:09:39;;;;;;;17.83;13.07;;;;;;;17.94;43.35;102471.75;6292903;28;20619;-69
2023/02/15 13:13:02;;;;;;;18.40;14.57;;;;;;;17.97;42.55;102472.31;6281409;28;20231;-70
2023/02/15 13:16:31;;;;;;;16.13;12.67;;;;;;;17.66;43.73;102465.28;6282416;28;20250;-70
2023/02/15 13:19:54;;;;;;;19.43;14.40;;;;;;;15.85;47.56;102463.44;6291725;28;20261;-70
2023/02/15 13:23:28;;;;;;;16.93;14.73;;;;;;;16.06;47.83;102458.06;6251389;28;20318;-69
2023/02/15 13:26:50;;;;;;;16.93;13.10;;;;;;;16.24;46.99;102459.16;6283476;28;20231;-70
2023/02/15 13:30:22;;;;;;;14.43;10.30;;;;;;;15.10;49.69;102459.84;6271870;28;20342;-69
2023/02/15 13:33:47;;;;;;;13.77;10.97;;;;;;;15.84;48.24;102456.31;6270937;28;20834;-70
2023/02/15 13:37:16;;;;;;;12.60;11.00;;;;;;;14.90;50.85;102465.19;6296340;28;20226;-71
2023/02/15 13:40:44;;;;;;;13.23;9.23;;;;;;;16.57;47.12;102453.50;6290639;28;20326;-70
2023/02/15 13:44:15;;;;;;;10.80;8.97;;;;;;;17.52;44.93;102436.53;6295432;28;20233;-72
2023/02/15 13:47:48;;;;;;;11.60;8.23;;;;;;;15.78;48.25;102437.78;6285053;28;20608;-70
2023/02/15 13:51:17;;;;;;;11.53;9.90;;;;;;;15.69;48.81;102441.28;6296010;28;20250;-71
2023/02/15 13:54:52;;;;;;;9.67;8.33;;;;;;;15.21;50.93;102429.97;6276985;28;20238;-68
2023/02/15 13:58:44;;;;;;;14.00;10.37;;;;;;;14.45;55.68;102441.78;6262961;28;20266;-68
2023/02/15 14:02:43;;;;;;;11.70;9.20;;;;;;;14.92;53.49;102427.91;6285952;28;20235;-68
2023/02/15 14:06:29;;;;;;;13.27;9.87;;;;;;;15.05;51.82;102421.38;6287463;28;20243;-70
2023/02/15 14:10:03;;;;;;;10.73;8.90;;;;;;;15.32;50.93;102422.75;6281566;28;20603;-70
2023/02/15 14:13:47;;;;;;;13.83;10.67;;;;;;;15.61;49.56;102426.63;6259760;28;20225;-70
2023/02/15 14:17:21;;;;;;;12.20;7.73;;;;;;;16.83;47.91;102415.75;6293121;28;20772;-69
2023/02/15 14:20:52;;;;;;;13.13;8.83;;;;;;;16.68;48.38;102418.00;6291379;28;20222;-70
2023/02/15 14:24:25;;;;;;;12.80;9.97;;;;;;;17.21;46.94;102413.09;6290760;27;20251;-71
2023/02/15 14:27:57;;;;;;;11.57;8.80;;;;;;;17.23;45.47;102408.38;6284218;28;20239;-70
2023/02/15 14:31:22;;;;;;;8.57;7.80;;;;;;;17.46;46.48;102409.81;6286529;28;22649;-70
2023/02/15 14:34:50;;;;;;;11.10;8.40;;;;;;;18.61;43.54;102400.59;6289245;28;20235;-69
2023/02/15 14:38:20;;;;;;;10.93;8.40;;;;;;;18.32;43.35;102407.00;6274559;28;20239;-72
2023/02/15 14:41:49;;;;;;;10.10;7.97;;;;;;;16.96;46.30;102407.34;6312152;28;20320;-70
2023/02/15 14:45:20;;;;;;;11.27;10.03;;;;;;;15.14;50.90;102411.59;6294059;28;20225;-71
2023/02/15 14:48:46;;;;;;;14.37;10.27;;;;;;;15.09;51.38;102400.22;6274470;28;20230;-71
2023/02/15 14:52:10;;;;;;;13.37;8.27;;;;;;;15.64;50.44;102401.91;6304156;28;20231;-69
2023/02/15 14:55:36;;;;;;;11.17;8.63;;;;;;;14.85;52.32;102394.97;6303983;28;20760;-71
2023/02/15 14:59:00;;;;;;;14.47;10.83;;;;;;;14.72;53.34;102397.00;6301980;28;20585;-70
2023/02/15 15:02:24;;;;;;;15.93;10.50;;;;;;;14.51;54.20;102408.72;6283418;28;20227;-68
2023/02/15 15:05:51;;;;;;;13.33;10.03;;;;;;;14.43;54.83;102400.34;6270627;28;20227;-69
2023/02/15 15:09:21;;;;;;;12.43;8.33;;;;;;;14.46;54.61;102402.81;6263205;28;20234;-71
2023/02/15 15:12:44;;;;;;;12.10;10.53;;;;;;;14.11;56.02;102408.28;6290917;27;20226;-69
2023/02/15 15:16:29;;;;;;;12.30;9.60;;;;;;;13.75;56.74;102408.50;6304721;28;20227;-70
2023/02/15 15:20:01;;;;;;;10.10;8.43;;;;;;;13.79;57.12;102402.69;6292604;28;20358;-71
2023/02/15 15:23:41;;;;;;;10.00;8.17;;;;;;;13.52;58.18;102402.97;6276961;28;20222;-69
2023/02/15 15:27:35;;;;;;;14.07;10.13;;;;;;;12.87;60.20;102395.38;6308345;27;20230;-70
2023/02/15 15:31:01;;;;;;;11.30;9.53;;;;;;;12.72;61.42;102400.91;6281258;28;20220;-70
2023/02/15 15:34:42;;;;;;;13.23;10.27;;;;;;;12.71;61.39;102409.16;6278166;28;20223;-70
2023/02/15 15:38:23;;;;;;;11.83;9.03;;;;;;;12.23;62.84;102405.44;6280906;28;20328;-69
2023/02/15 15:41:54;;;;;;;9.53;8.43;;;;;;;12.34;63.06;102401.97;6284616;28;20223;-70
2023/02/15 15:45:41;;;;;;;11.60;10.23;;;;;;;12.14;63.04;102395.28;6272381;28;20325;-70
2023/02/15 15:49:10;;;;;;;13.13;9.33;;;;;;;12.28;63.60;102395.19;6286620;28;20226;-70
2023/02/15 15:52:37;;;;;;;12.70;10.23;;;;;;;12.09;64.60;102386.66;6290539;28;20219;-70
2023/02/15 15:56:04;;;;;;;14.40;9.30;;;;;;;11.03;67.63;102388.59;6281147;28;20318;-71
2023/02/15 15:59:28;;;;;;;9.10;7.87;;;;;;;11.24;67.22;102389.84;6295077;28;20290;-69
2023/02/15 16:02:53;;;;;;;12.17;9.47;;;;;;;11.21;67.35;102383.78;6305079;28;20328;-70
2023/02/15 16:06:27;;;;;;;11.97;8.47;;;;;;;11.56;66.21;102367.88;6298088;28;20219;-70
2023/02/15 16:09:55;;;;;;;11.93;8.83;;;;;;;11.51;66.47;102365.53;6279220;28;20257;-70
2023/02/15 16:13:16;;;;;;;12.37;9.30;;;;;;;11.57;66.56;102367.78;6280639;28;20242;-70
2023/02/15 16:16:36;;;;;;;13.40;8.53;;;;;;;11.22;67.03;102367.47;6291501;28;20231;-71
2023/02/15 16:20:02;;;;;;;13.97;11.73;;;;;;;11.26;67.79;102370.84;6308171;28;20606;-70